sensor_id;sensor_type;location;lat;lon;timestamp;temperature;humidity
13569;DHT22;6856;51.460;7.158;2023-07-31T00:01:59;19.70;68.30
13569;DHT22;6856;51.460;7.158;2023-07-31T00:04:35;19.70;68.40
13569;DHT22;6856;51.460;7.158;2023-07-31T00:07:09;19.70;68.50
13569;DHT22;6856;51.460;7.158;2023-07-31T00:09:42;19.60;68.50
13569;DHT22;6856;51.460;7.158;2023-07-31T00:12:16;19.70;68.50
13569;DHT22;6856;51.460;7.158;2023-07-31T00:14:50;19.70;68.60
13569;DHT22;6856;51.460;7.158;2023-07-31T00:17:24;19.70;68.50
13569;DHT22;6856;51.460;7.158;2023-07-31T00:20:00;19.70;68.70
13569;DHT22;6856;51.460;7.158;2023-07-31T00:22:35;19.70;68.80
13569;DHT22;6856;51.460;7.158;2023-07-31T00:25:09;19.70;68.80
13569;DHT22;6856;51.460;7.158;2023-07-31T00:27:43;19.70;68.80
13569;DHT22;6856;51.460;7.158;2023-07-31T00:30:18;19.70;68.80
13569;DHT22;6856;51.460;7.158;2023-07-31T00:32:52;19.70;68.90
13569;DHT22;6856;51.460;7.158;2023-07-31T00:35:27;19.70;68.80
13569;DHT22;6856;51.460;7.158;2023-07-31T00:38:01;19.70;68.80
13569;DHT22;6856;51.460;7.158;2023-07-31T00:40:35;19.70;69.50
13569;DHT22;6856;51.460;7.158;2023-07-31T00:43:11;19.70;69.20
13569;DHT22;6856;51.460;7.158;2023-07-31T00:45:45;19.70;68.90
13569;DHT22;6856;51.460;7.158;2023-07-31T00:48:19;19.70;69.00
13569;DHT22;6856;51.460;7.158;2023-07-31T00:50:53;19.70;69.10
13569;DHT22;6856;51.460;7.158;2023-07-31T00:53:30;19.70;69.10
13569;DHT22;6856;51.460;7.158;2023-07-31T00:56:04;19.70;69.20
13569;DHT22;6856;51.460;7.158;2023-07-31T00:58:38;19.60;69.00
13569;DHT22;6856;51.460;7.158;2023-07-31T01:01:12;19.60;69.10
13569;DHT22;6856;51.460;7.158;2023-07-31T01:03:47;19.60;69.10
13569;DHT22;6856;51.460;7.158;2023-07-31T01:06:31;19.60;69.30
13569;DHT22;6856;51.460;7.158;2023-07-31T01:09:22;19.60;69.50
13569;DHT22;6856;51.460;7.158;2023-07-31T01:12:03;19.60;69.50
13569;DHT22;6856;51.460;7.158;2023-07-31T01:14:40;19.60;69.20
13569;DHT22;6856;51.460;7.158;2023-07-31T01:17:13;19.60;69.00
13569;DHT22;6856;51.460;7.158;2023-07-31T01:19:48;19.60;69.10
13569;DHT22;6856;51.460;7.158;2023-07-31T01:22:33;19.60;69.20
13569;DHT22;6856;51.460;7.158;2023-07-31T01:28:27;19.60;69.40
13569;DHT22;6856;51.460;7.158;2023-07-31T01:31:07;19.60;69.00
13569;DHT22;6856;51.460;7.158;2023-07-31T01:33:45;19.60;69.20
13569;DHT22;6856;51.460;7.158;2023-07-31T01:36:20;19.60;69.20
13569;DHT22;6856;51.460;7.158;2023-07-31T01:38:58;19.60;69.20
13569;DHT22;6856;51.460;7.158;2023-07-31T01:41:34;19.60;69.40
13569;DHT22;6856;51.460;7.158;2023-07-31T01:44:07;19.60;69.30
13569;DHT22;6856;51.460;7.158;2023-07-31T01:46:41;19.50;69.20
13569;DHT22;6856;51.460;7.158;2023-07-31T01:49:15;19.60;69.30
13569;DHT22;6856;51.460;7.158;2023-07-31T01:51:48;19.60;69.30
13569;DHT22;6856;51.460;7.158;2023-07-31T01:54:22;19.60;69.40
13569;DHT22;6856;51.460;7.158;2023-07-31T01:56:58;19.60;69.40
13569;DHT22;6856;51.460;7.158;2023-07-31T01:59:31;19.60;69.40
13569;DHT22;6856;51.460;7.158;2023-07-31T02:02:06;19.60;69.10
13569;DHT22;6856;51.460;7.158;2023-07-31T02:04:39;19.60;70.00
13569;DHT22;6856;51.460;7.158;2023-07-31T02:07:15;19.60;69.20
13569;DHT22;6856;51.460;7.158;2023-07-31T02:09:49;19.60;69.20
13569;DHT22;6856;51.460;7.158;2023-07-31T02:12:24;19.60;69.00
13569;DHT22;6856;51.460;7.158;2023-07-31T02:14:57;19.60;69.00
13569;DHT22;6856;51.460;7.158;2023-07-31T02:17:31;19.60;69.00
13569;DHT22;6856;51.460;7.158;2023-07-31T02:20:06;19.60;69.60
13569;DHT22;6856;51.460;7.158;2023-07-31T02:22:40;19.60;69.00
13569;DHT22;6856;51.460;7.158;2023-07-31T02:25:41;19.60;68.90
13569;DHT22;6856;51.460;7.158;2023-07-31T02:28:16;19.60;69.20
13569;DHT22;6856;51.460;7.158;2023-07-31T02:30:50;19.60;68.90
13569;DHT22;6856;51.460;7.158;2023-07-31T02:33:24;19.60;68.80
13569;DHT22;6856;51.460;7.158;2023-07-31T02:35:59;19.60;68.80
13569;DHT22;6856;51.460;7.158;2023-07-31T02:38:33;19.60;68.80
13569;DHT22;6856;51.460;7.158;2023-07-31T02:41:07;19.60;68.80
13569;DHT22;6856;51.460;7.158;2023-07-31T02:43:42;19.50;68.70
13569;DHT22;6856;51.460;7.158;2023-07-31T02:46:16;19.60;68.70
13569;DHT22;6856;51.460;7.158;2023-07-31T02:48:50;19.60;69.40
13569;DHT22;6856;51.460;7.158;2023-07-31T02:51:24;19.60;68.60
13569;DHT22;6856;51.460;7.158;2023-07-31T02:53:57;19.60;68.60
13569;DHT22;6856;51.460;7.158;2023-07-31T02:56:33;19.60;68.50
13569;DHT22;6856;51.460;7.158;2023-07-31T02:59:08;19.60;68.50
13569;DHT22;6856;51.460;7.158;2023-07-31T03:01:42;19.60;68.40
13569;DHT22;6856;51.460;7.158;2023-07-31T03:04:16;19.50;68.30
13569;DHT22;6856;51.460;7.158;2023-07-31T03:06:50;19.60;68.40
13569;DHT22;6856;51.460;7.158;2023-07-31T03:09:23;19.60;68.50
13569;DHT22;6856;51.460;7.158;2023-07-31T03:11:57;19.50;68.40
13569;DHT22;6856;51.460;7.158;2023-07-31T03:14:32;19.50;68.40
13569;DHT22;6856;51.460;7.158;2023-07-31T03:17:06;19.50;68.30
13569;DHT22;6856;51.460;7.158;2023-07-31T03:19:40;19.50;68.50
13569;DHT22;6856;51.460;7.158;2023-07-31T03:22:13;19.50;68.50
13569;DHT22;6856;51.460;7.158;2023-07-31T03:24:47;19.50;68.60
13569;DHT22;6856;51.460;7.158;2023-07-31T03:27:21;19.50;68.50
13569;DHT22;6856;51.460;7.158;2023-07-31T03:29:56;19.60;68.60
13569;DHT22;6856;51.460;7.158;2023-07-31T03:32:31;19.50;68.60
13569;DHT22;6856;51.460;7.158;2023-07-31T03:35:06;19.50;68.60
13569;DHT22;6856;51.460;7.158;2023-07-31T03:37:40;19.60;68.60
13569;DHT22;6856;51.460;7.158;2023-07-31T03:40:14;19.60;68.50
13569;DHT22;6856;51.460;7.158;2023-07-31T03:42:48;19.60;68.60
13569;DHT22;6856;51.460;7.158;2023-07-31T03:45:23;19.60;68.50
13569;DHT22;6856;51.460;7.158;2023-07-31T03:47:57;19.60;68.50
13569;DHT22;6856;51.460;7.158;2023-07-31T03:50:31;19.60;68.60
13569;DHT22;6856;51.460;7.158;2023-07-31T03:53:05;19.60;68.60
13569;DHT22;6856;51.460;7.158;2023-07-31T03:55:39;19.60;68.70
13569;DHT22;6856;51.460;7.158;2023-07-31T03:58:12;19.60;68.60
13569;DHT22;6856;51.460;7.158;2023-07-31T04:00:48;19.60;68.70
13569;DHT22;6856;51.460;7.158;2023-07-31T04:03:22;19.60;68.80
13569;DHT22;6856;51.460;7.158;2023-07-31T04:05:56;19.60;68.70
13569;DHT22;6856;51.460;7.158;2023-07-31T04:08:29;19.60;68.70
13569;DHT22;6856;51.460;7.158;2023-07-31T04:11:03;19.70;68.70
13569;DHT22;6856;51.460;7.158;2023-07-31T04:13:37;19.70;68.70
13569;DHT22;6856;51.460;7.158;2023-07-31T04:16:12;19.70;68.60
13569;DHT22;6856;51.460;7.158;2023-07-31T04:18:46;19.70;68.60
13569;DHT22;6856;51.460;7.158;2023-07-31T04:21:20;19.70;68.70
13569;DHT22;6856;51.460;7.158;2023-07-31T04:23:55;19.70;68.60
13569;DHT22;6856;51.460;7.158;2023-07-31T04:26:30;19.70;68.70
13569;DHT22;6856;51.460;7.158;2023-07-31T04:29:04;19.70;68.70
13569;DHT22;6856;51.460;7.158;2023-07-31T04:31:39;19.80;68.20
13569;DHT22;6856;51.460;7.158;2023-07-31T04:34:12;19.80;68.90
13569;DHT22;6856;51.460;7.158;2023-07-31T04:36:46;19.80;68.90
13569;DHT22;6856;51.460;7.158;2023-07-31T04:39:20;19.80;68.90
13569;DHT22;6856;51.460;7.158;2023-07-31T04:41:54;19.80;68.80
13569;DHT22;6856;51.460;7.158;2023-07-31T04:44:28;19.80;68.80
13569;DHT22;6856;51.460;7.158;2023-07-31T04:47:04;19.90;68.80
13569;DHT22;6856;51.460;7.158;2023-07-31T04:49:38;19.90;68.80
13569;DHT22;6856;51.460;7.158;2023-07-31T04:52:12;19.90;68.80
13569;DHT22;6856;51.460;7.158;2023-07-31T04:54:45;19.90;68.80
13569;DHT22;6856;51.460;7.158;2023-07-31T04:57:20;19.90;68.80
13569;DHT22;6856;51.460;7.158;2023-07-31T04:59:53;19.90;69.40
13569;DHT22;6856;51.460;7.158;2023-07-31T05:02:42;19.90;68.70
13569;DHT22;6856;51.460;7.158;2023-07-31T05:05:16;19.90;69.00
13569;DHT22;6856;51.460;7.158;2023-07-31T05:07:49;19.90;68.80
13569;DHT22;6856;51.460;7.158;2023-07-31T05:10:23;19.90;68.90
13569;DHT22;6856;51.460;7.158;2023-07-31T05:12:57;19.90;69.00
13569;DHT22;6856;51.460;7.158;2023-07-31T05:15:31;19.90;69.00
13569;DHT22;6856;51.460;7.158;2023-07-31T05:18:06;19.90;69.10
13569;DHT22;6856;51.460;7.158;2023-07-31T05:20:40;20.00;69.10
13569;DHT22;6856;51.460;7.158;2023-07-31T05:23:14;20.00;69.10
13569;DHT22;6856;51.460;7.158;2023-07-31T05:25:49;20.00;69.10
13569;DHT22;6856;51.460;7.158;2023-07-31T05:28:22;20.00;69.20
13569;DHT22;6856;51.460;7.158;2023-07-31T05:30:59;20.00;69.10
13569;DHT22;6856;51.460;7.158;2023-07-31T05:33:35;20.00;69.20
13569;DHT22;6856;51.460;7.158;2023-07-31T05:36:09;20.00;69.10
13569;DHT22;6856;51.460;7.158;2023-07-31T05:38:44;20.10;69.10
13569;DHT22;6856;51.460;7.158;2023-07-31T05:41:19;20.00;69.10
13569;DHT22;6856;51.460;7.158;2023-07-31T05:43:53;20.10;69.00
13569;DHT22;6856;51.460;7.158;2023-07-31T05:46:27;20.10;69.10
13569;DHT22;6856;51.460;7.158;2023-07-31T05:49:02;20.10;69.20
13569;DHT22;6856;51.460;7.158;2023-07-31T05:51:35;20.10;69.20
13569;DHT22;6856;51.460;7.158;2023-07-31T05:54:09;20.10;69.30
13569;DHT22;6856;51.460;7.158;2023-07-31T05:56:43;20.10;70.00
13569;DHT22;6856;51.460;7.158;2023-07-31T05:59:17;20.10;69.30
13569;DHT22;6856;51.460;7.158;2023-07-31T06:01:51;20.10;69.40
13569;DHT22;6856;51.460;7.158;2023-07-31T06:04:27;20.10;69.40
13569;DHT22;6856;51.460;7.158;2023-07-31T06:07:01;20.10;69.30
13569;DHT22;6856;51.460;7.158;2023-07-31T06:09:35;20.10;69.30
13569;DHT22;6856;51.460;7.158;2023-07-31T06:12:10;20.10;69.40
13569;DHT22;6856;51.460;7.158;2023-07-31T06:14:43;20.10;69.40
13569;DHT22;6856;51.460;7.158;2023-07-31T06:17:17;20.10;69.20
13569;DHT22;6856;51.460;7.158;2023-07-31T06:19:52;20.10;69.50
13569;DHT22;6856;51.460;7.158;2023-07-31T06:22:26;20.10;69.60
13569;DHT22;6856;51.460;7.158;2023-07-31T06:25:00;20.10;69.70
13569;DHT22;6856;51.460;7.158;2023-07-31T06:27:34;20.10;69.80
13569;DHT22;6856;51.460;7.158;2023-07-31T06:30:09;20.10;69.70
13569;DHT22;6856;51.460;7.158;2023-07-31T06:32:44;20.10;69.80
13569;DHT22;6856;51.460;7.158;2023-07-31T06:35:19;20.20;69.80
13569;DHT22;6856;51.460;7.158;2023-07-31T06:37:53;20.20;69.90
13569;DHT22;6856;51.460;7.158;2023-07-31T06:40:27;20.20;70.00
13569;DHT22;6856;51.460;7.158;2023-07-31T06:43:01;20.20;70.00
13569;DHT22;6856;51.460;7.158;2023-07-31T06:45:41;20.20;70.10
13569;DHT22;6856;51.460;7.158;2023-07-31T06:48:14;20.20;70.10
13569;DHT22;6856;51.460;7.158;2023-07-31T06:50:49;20.20;70.00
13569;DHT22;6856;51.460;7.158;2023-07-31T06:53:23;20.20;70.10
13569;DHT22;6856;51.460;7.158;2023-07-31T06:55:58;20.20;70.10
13569;DHT22;6856;51.460;7.158;2023-07-31T06:58:32;20.20;70.10
13569;DHT22;6856;51.460;7.158;2023-07-31T07:01:06;20.20;70.10
13569;DHT22;6856;51.460;7.158;2023-07-31T07:03:41;20.20;70.20
13569;DHT22;6856;51.460;7.158;2023-07-31T07:06:16;20.20;70.20
13569;DHT22;6856;51.460;7.158;2023-07-31T07:08:50;20.20;70.20
13569;DHT22;6856;51.460;7.158;2023-07-31T07:11:23;20.20;70.20
13569;DHT22;6856;51.460;7.158;2023-07-31T07:13:58;20.20;70.20
13569;DHT22;6856;51.460;7.158;2023-07-31T07:16:32;20.20;70.30
13569;DHT22;6856;51.460;7.158;2023-07-31T07:19:06;20.20;70.30
13569;DHT22;6856;51.460;7.158;2023-07-31T07:21:41;20.20;70.10
13569;DHT22;6856;51.460;7.158;2023-07-31T07:24:14;20.20;70.40
13569;DHT22;6856;51.460;7.158;2023-07-31T07:26:48;20.20;70.40
13569;DHT22;6856;51.460;7.158;2023-07-31T07:29:22;20.20;70.50
13569;DHT22;6856;51.460;7.158;2023-07-31T07:31:56;20.20;70.60
13569;DHT22;6856;51.460;7.158;2023-07-31T07:34:30;20.20;70.60
13569;DHT22;6856;51.460;7.158;2023-07-31T07:37:06;20.20;70.70
13569;DHT22;6856;51.460;7.158;2023-07-31T07:39:40;20.20;70.80
13569;DHT22;6856;51.460;7.158;2023-07-31T07:42:14;20.20;70.80
13569;DHT22;6856;51.460;7.158;2023-07-31T07:44:48;20.20;71.00
13569;DHT22;6856;51.460;7.158;2023-07-31T07:47:47;20.10;70.90
13569;DHT22;6856;51.460;7.158;2023-07-31T07:50:21;20.20;71.50
13569;DHT22;6856;51.460;7.158;2023-07-31T07:52:56;20.20;71.10
13569;DHT22;6856;51.460;7.158;2023-07-31T07:55:29;20.10;71.20
13569;DHT22;6856;51.460;7.158;2023-07-31T07:58:03;20.20;71.40
13569;DHT22;6856;51.460;7.158;2023-07-31T08:00:39;20.20;71.40
13569;DHT22;6856;51.460;7.158;2023-07-31T08:03:14;20.20;71.40
13569;DHT22;6856;51.460;7.158;2023-07-31T08:05:49;20.20;71.40
13569;DHT22;6856;51.460;7.158;2023-07-31T08:08:24;20.20;71.30
13569;DHT22;6856;51.460;7.158;2023-07-31T08:10:58;20.20;71.20
13569;DHT22;6856;51.460;7.158;2023-07-31T08:13:31;20.20;71.10
13569;DHT22;6856;51.460;7.158;2023-07-31T08:16:05;20.20;71.20
13569;DHT22;6856;51.460;7.158;2023-07-31T08:18:39;20.20;71.20
13569;DHT22;6856;51.460;7.158;2023-07-31T08:21:14;20.20;71.20
13569;DHT22;6856;51.460;7.158;2023-07-31T08:23:50;20.20;71.30
13569;DHT22;6856;51.460;7.158;2023-07-31T08:26:23;20.20;71.20
13569;DHT22;6856;51.460;7.158;2023-07-31T08:28:57;20.10;71.20
13569;DHT22;6856;51.460;7.158;2023-07-31T08:31:30;20.10;71.30
13569;DHT22;6856;51.460;7.158;2023-07-31T08:34:04;20.10;71.30
13569;DHT22;6856;51.460;7.158;2023-07-31T08:36:37;20.10;72.20
13569;DHT22;6856;51.460;7.158;2023-07-31T08:39:13;20.10;72.20
13569;DHT22;6856;51.460;7.158;2023-07-31T08:41:48;20.20;71.70
13569;DHT22;6856;51.460;7.158;2023-07-31T08:44:22;20.10;71.40
13569;DHT22;6856;51.460;7.158;2023-07-31T08:46:56;20.10;71.50
13569;DHT22;6856;51.460;7.158;2023-07-31T08:49:30;20.10;71.50
13569;DHT22;6856;51.460;7.158;2023-07-31T08:52:06;20.10;71.50
13569;DHT22;6856;51.460;7.158;2023-07-31T08:54:41;20.10;71.60
13569;DHT22;6856;51.460;7.158;2023-07-31T08:57:15;20.10;71.60
13569;DHT22;6856;51.460;7.158;2023-07-31T08:59:50;20.10;71.70
13569;DHT22;6856;51.460;7.158;2023-07-31T09:02:29;20.10;71.70
13569;DHT22;6856;51.460;7.158;2023-07-31T09:05:09;20.20;71.90
13569;DHT22;6856;51.460;7.158;2023-07-31T09:07:47;20.10;71.70
13569;DHT22;6856;51.460;7.158;2023-07-31T09:10:24;20.20;71.80
13569;DHT22;6856;51.460;7.158;2023-07-31T09:12:58;20.20;71.70
13569;DHT22;6856;51.460;7.158;2023-07-31T09:15:33;20.10;71.70
13569;DHT22;6856;51.460;7.158;2023-07-31T09:18:09;20.10;71.80
13569;DHT22;6856;51.460;7.158;2023-07-31T09:20:43;20.10;71.70
13569;DHT22;6856;51.460;7.158;2023-07-31T09:23:17;20.10;71.70
13569;DHT22;6856;51.460;7.158;2023-07-31T09:25:55;20.10;71.90
13569;DHT22;6856;51.460;7.158;2023-07-31T09:28:31;20.10;72.00
13569;DHT22;6856;51.460;7.158;2023-07-31T09:31:05;20.10;72.00
13569;DHT22;6856;51.460;7.158;2023-07-31T09:33:54;20.10;72.10
13569;DHT22;6856;51.460;7.158;2023-07-31T09:36:29;20.10;72.50
13569;DHT22;6856;51.460;7.158;2023-07-31T09:39:04;20.10;72.30
13569;DHT22;6856;51.460;7.158;2023-07-31T09:41:41;20.10;72.20
13569;DHT22;6856;51.460;7.158;2023-07-31T09:44:16;20.10;72.50
13569;DHT22;6856;51.460;7.158;2023-07-31T09:46:50;20.10;72.50
13569;DHT22;6856;51.460;7.158;2023-07-31T09:49:25;20.20;72.70
13569;DHT22;6856;51.460;7.158;2023-07-31T09:51:58;20.20;72.80
13569;DHT22;6856;51.460;7.158;2023-07-31T09:54:33;20.20;73.30
13569;DHT22;6856;51.460;7.158;2023-07-31T09:57:11;20.20;72.80
13569;DHT22;6856;51.460;7.158;2023-07-31T09:59:46;20.20;73.00
13569;DHT22;6856;51.460;7.158;2023-07-31T10:02:22;20.30;73.00
13569;DHT22;6856;51.460;7.158;2023-07-31T10:04:57;20.30;73.00
13569;DHT22;6856;51.460;7.158;2023-07-31T10:07:37;20.30;73.00
13569;DHT22;6856;51.460;7.158;2023-07-31T10:10:14;20.30;73.00
13569;DHT22;6856;51.460;7.158;2023-07-31T10:12:52;20.30;72.90
13569;DHT22;6856;51.460;7.158;2023-07-31T10:15:26;20.30;72.80
13569;DHT22;6856;51.460;7.158;2023-07-31T10:18:02;20.30;72.80
13569;DHT22;6856;51.460;7.158;2023-07-31T10:20:38;20.30;72.70
13569;DHT22;6856;51.460;7.158;2023-07-31T10:23:14;20.40;72.70
13569;DHT22;6856;51.460;7.158;2023-07-31T10:25:50;20.40;72.70
13569;DHT22;6856;51.460;7.158;2023-07-31T10:28:27;20.40;72.60
13569;DHT22;6856;51.460;7.158;2023-07-31T10:31:03;20.30;72.60
13569;DHT22;6856;51.460;7.158;2023-07-31T10:33:38;20.30;72.70
13569;DHT22;6856;51.460;7.158;2023-07-31T10:36:13;20.40;72.70
13569;DHT22;6856;51.460;7.158;2023-07-31T10:38:49;20.30;72.80
13569;DHT22;6856;51.460;7.158;2023-07-31T10:41:29;20.40;72.90
13569;DHT22;6856;51.460;7.158;2023-07-31T10:44:07;20.40;72.90
13569;DHT22;6856;51.460;7.158;2023-07-31T10:46:41;20.40;72.90
13569;DHT22;6856;51.460;7.158;2023-07-31T10:49:21;20.40;72.80
13569;DHT22;6856;51.460;7.158;2023-07-31T10:51:56;20.40;72.90
13569;DHT22;6856;51.460;7.158;2023-07-31T10:54:29;20.40;72.70
13569;DHT22;6856;51.460;7.158;2023-07-31T10:57:19;20.40;72.70
13569;DHT22;6856;51.460;7.158;2023-07-31T11:00:19;20.40;73.10
13569;DHT22;6856;51.460;7.158;2023-07-31T11:02:59;20.30;73.10
13569;DHT22;6856;51.460;7.158;2023-07-31T11:05:49;20.40;73.00
13569;DHT22;6856;51.460;7.158;2023-07-31T11:08:26;20.30;73.00
13569;DHT22;6856;51.460;7.158;2023-07-31T11:11:06;20.30;72.80
13569;DHT22;6856;51.460;7.158;2023-07-31T11:13:42;20.30;72.90
13569;DHT22;6856;51.460;7.158;2023-07-31T11:16:20;20.40;73.00
13569;DHT22;6856;51.460;7.158;2023-07-31T11:18:55;20.40;73.10
13569;DHT22;6856;51.460;7.158;2023-07-31T11:21:30;20.40;73.10
13569;DHT22;6856;51.460;7.158;2023-07-31T11:24:04;20.40;73.20
13569;DHT22;6856;51.460;7.158;2023-07-31T11:26:38;20.40;73.20
13569;DHT22;6856;51.460;7.158;2023-07-31T11:29:21;20.40;73.40
13569;DHT22;6856;51.460;7.158;2023-07-31T11:32:03;20.50;73.50
13569;DHT22;6856;51.460;7.158;2023-07-31T11:34:51;20.50;73.70
13569;DHT22;6856;51.460;7.158;2023-07-31T11:37:38;20.50;73.90
13569;DHT22;6856;51.460;7.158;2023-07-31T11:40:12;20.60;74.00
13569;DHT22;6856;51.460;7.158;2023-07-31T11:42:46;20.60;73.60
13569;DHT22;6856;51.460;7.158;2023-07-31T11:45:20;20.60;73.60
13569;DHT22;6856;51.460;7.158;2023-07-31T11:47:57;20.70;73.60
13569;DHT22;6856;51.460;7.158;2023-07-31T11:50:33;20.70;73.60
13569;DHT22;6856;51.460;7.158;2023-07-31T11:53:09;20.80;73.60
13569;DHT22;6856;51.460;7.158;2023-07-31T11:55:44;20.80;73.60
13569;DHT22;6856;51.460;7.158;2023-07-31T11:58:20;20.80;73.70
13569;DHT22;6856;51.460;7.158;2023-07-31T12:00:55;20.80;73.70
13569;DHT22;6856;51.460;7.158;2023-07-31T12:03:32;20.90;73.60
13569;DHT22;6856;51.460;7.158;2023-07-31T12:06:07;20.90;73.70
13569;DHT22;6856;51.460;7.158;2023-07-31T12:08:44;20.90;73.70
13569;DHT22;6856;51.460;7.158;2023-07-31T12:11:18;21.00;73.70
13569;DHT22;6856;51.460;7.158;2023-07-31T12:13:52;21.00;73.60
13569;DHT22;6856;51.460;7.158;2023-07-31T12:16:26;21.10;73.50
13569;DHT22;6856;51.460;7.158;2023-07-31T12:19:03;21.10;73.40
13569;DHT22;6856;51.460;7.158;2023-07-31T12:21:38;21.10;73.20
13569;DHT22;6856;51.460;7.158;2023-07-31T12:24:12;21.10;73.10
13569;DHT22;6856;51.460;7.158;2023-07-31T12:26:46;21.20;73.00
13569;DHT22;6856;51.460;7.158;2023-07-31T12:29:21;21.20;72.90
13569;DHT22;6856;51.460;7.158;2023-07-31T12:31:55;21.20;72.60
13569;DHT22;6856;51.460;7.158;2023-07-31T12:34:30;21.20;72.50
13569;DHT22;6856;51.460;7.158;2023-07-31T12:37:06;21.20;72.40
13569;DHT22;6856;51.460;7.158;2023-07-31T12:39:40;21.20;72.50
13569;DHT22;6856;51.460;7.158;2023-07-31T12:42:14;21.20;72.50
13569;DHT22;6856;51.460;7.158;2023-07-31T12:44:50;21.20;72.50
13569;DHT22;6856;51.460;7.158;2023-07-31T12:47:24;21.20;72.50
13569;DHT22;6856;51.460;7.158;2023-07-31T12:49:59;21.20;72.50
13569;DHT22;6856;51.460;7.158;2023-07-31T12:52:34;21.20;72.60
13569;DHT22;6856;51.460;7.158;2023-07-31T12:55:08;21.20;73.30
13569;DHT22;6856;51.460;7.158;2023-07-31T12:57:44;21.20;72.50
13569;DHT22;6856;51.460;7.158;2023-07-31T13:00:18;21.20;72.60
13569;DHT22;6856;51.460;7.158;2023-07-31T13:02:51;21.20;72.70
13569;DHT22;6856;51.460;7.158;2023-07-31T13:05:29;21.20;72.50
13569;DHT22;6856;51.460;7.158;2023-07-31T13:08:03;21.20;72.40
13569;DHT22;6856;51.460;7.158;2023-07-31T13:10:37;21.30;72.40
13569;DHT22;6856;51.460;7.158;2023-07-31T13:13:11;21.30;72.30
13569;DHT22;6856;51.460;7.158;2023-07-31T13:15:45;21.30;72.30
13569;DHT22;6856;51.460;7.158;2023-07-31T13:18:19;21.30;72.30
13569;DHT22;6856;51.460;7.158;2023-07-31T13:20:54;21.30;72.20
13569;DHT22;6856;51.460;7.158;2023-07-31T13:23:28;21.30;72.10
13569;DHT22;6856;51.460;7.158;2023-07-31T13:26:02;21.30;72.20
13569;DHT22;6856;51.460;7.158;2023-07-31T13:28:36;21.30;72.30
13569;DHT22;6856;51.460;7.158;2023-07-31T13:31:10;21.30;72.40
13569;DHT22;6856;51.460;7.158;2023-07-31T13:33:44;21.30;72.50
13569;DHT22;6856;51.460;7.158;2023-07-31T13:36:23;21.30;72.60
13569;DHT22;6856;51.460;7.158;2023-07-31T13:38:57;21.30;72.90
13569;DHT22;6856;51.460;7.158;2023-07-31T13:41:31;21.30;72.80
13569;DHT22;6856;51.460;7.158;2023-07-31T13:44:05;21.30;72.70
13569;DHT22;6856;51.460;7.158;2023-07-31T13:46:39;21.30;72.70
13569;DHT22;6856;51.460;7.158;2023-07-31T13:49:13;21.40;72.80
13569;DHT22;6856;51.460;7.158;2023-07-31T13:51:49;21.40;72.80
13569;DHT22;6856;51.460;7.158;2023-07-31T13:54:27;21.40;72.80
13569;DHT22;6856;51.460;7.158;2023-07-31T13:57:02;21.40;72.90
13569;DHT22;6856;51.460;7.158;2023-07-31T13:59:36;21.40;72.70
13569;DHT22;6856;51.460;7.158;2023-07-31T14:02:10;21.50;72.60
13569;DHT22;6856;51.460;7.158;2023-07-31T14:04:44;21.50;72.30
13569;DHT22;6856;51.460;7.158;2023-07-31T14:07:19;21.50;72.60
13569;DHT22;6856;51.460;7.158;2023-07-31T14:09:53;21.50;72.70
13569;DHT22;6856;51.460;7.158;2023-07-31T14:12:27;21.60;72.60
13569;DHT22;6856;51.460;7.158;2023-07-31T14:15:13;21.60;72.50
13569;DHT22;6856;51.460;7.158;2023-07-31T14:17:47;21.60;72.50
13569;DHT22;6856;51.460;7.158;2023-07-31T14:20:21;21.70;72.70
13569;DHT22;6856;51.460;7.158;2023-07-31T14:22:56;21.70;72.80
13569;DHT22;6856;51.460;7.158;2023-07-31T14:25:30;21.80;73.10
13569;DHT22;6856;51.460;7.158;2023-07-31T14:28:04;21.90;73.10
13569;DHT22;6856;51.460;7.158;2023-07-31T14:30:38;21.90;72.80
13569;DHT22;6856;51.460;7.158;2023-07-31T14:33:12;22.00;72.60
13569;DHT22;6856;51.460;7.158;2023-07-31T14:35:46;22.10;72.40
13569;DHT22;6856;51.460;7.158;2023-07-31T14:38:23;22.10;72.20
13569;DHT22;6856;51.460;7.158;2023-07-31T14:40:58;22.20;71.80
13569;DHT22;6856;51.460;7.158;2023-07-31T14:43:32;22.20;71.60
13569;DHT22;6856;51.460;7.158;2023-07-31T14:46:06;22.20;71.20
13569;DHT22;6856;51.460;7.158;2023-07-31T14:48:40;22.30;70.80
13569;DHT22;6856;51.460;7.158;2023-07-31T14:51:14;22.30;70.50
13569;DHT22;6856;51.460;7.158;2023-07-31T14:53:51;22.30;70.00
13569;DHT22;6856;51.460;7.158;2023-07-31T14:56:24;22.30;69.80
13569;DHT22;6856;51.460;7.158;2023-07-31T14:58:59;22.30;69.60
13569;DHT22;6856;51.460;7.158;2023-07-31T15:01:32;22.30;69.50
13569;DHT22;6856;51.460;7.158;2023-07-31T15:04:06;22.20;69.40
13569;DHT22;6856;51.460;7.158;2023-07-31T15:06:40;22.20;69.30
13569;DHT22;6856;51.460;7.158;2023-07-31T15:09:15;22.20;69.40
13569;DHT22;6856;51.460;7.158;2023-07-31T15:11:49;22.20;69.40
13569;DHT22;6856;51.460;7.158;2023-07-31T15:14:23;22.20;69.60
13569;DHT22;6856;51.460;7.158;2023-07-31T15:16:57;22.10;69.50
13569;DHT22;6856;51.460;7.158;2023-07-31T15:19:31;22.10;69.40
13569;DHT22;6856;51.460;7.158;2023-07-31T15:22:07;22.10;69.60
13569;DHT22;6856;51.460;7.158;2023-07-31T15:24:42;22.00;69.60
13569;DHT22;6856;51.460;7.158;2023-07-31T15:27:16;22.00;70.50
13569;DHT22;6856;51.460;7.158;2023-07-31T15:29:50;22.00;69.80
13569;DHT22;6856;51.460;7.158;2023-07-31T15:32:24;22.00;69.80
13569;DHT22;6856;51.460;7.158;2023-07-31T15:34:58;22.00;69.90
13569;DHT22;6856;51.460;7.158;2023-07-31T15:37:31;21.90;69.70
13569;DHT22;6856;51.460;7.158;2023-07-31T15:40:08;21.90;69.90
13569;DHT22;6856;51.460;7.158;2023-07-31T15:42:42;21.90;70.00
13569;DHT22;6856;51.460;7.158;2023-07-31T15:45:16;21.90;69.90
13569;DHT22;6856;51.460;7.158;2023-07-31T15:47:50;21.90;70.00
13569;DHT22;6856;51.460;7.158;2023-07-31T15:50:24;21.90;70.10
13569;DHT22;6856;51.460;7.158;2023-07-31T15:52:58;21.90;70.00
13569;DHT22;6856;51.460;7.158;2023-07-31T15:55:33;21.90;69.90
13569;DHT22;6856;51.460;7.158;2023-07-31T15:58:06;21.90;69.90
13569;DHT22;6856;51.460;7.158;2023-07-31T16:00:40;22.00;70.00
13569;DHT22;6856;51.460;7.158;2023-07-31T16:03:14;21.90;69.80
13569;DHT22;6856;51.460;7.158;2023-07-31T16:05:49;22.00;69.60
13569;DHT22;6856;51.460;7.158;2023-07-31T16:08:23;22.00;69.40
13569;DHT22;6856;51.460;7.158;2023-07-31T16:10:59;22.00;69.40
13569;DHT22;6856;51.460;7.158;2023-07-31T16:13:32;22.00;69.20
13569;DHT22;6856;51.460;7.158;2023-07-31T16:16:06;22.00;69.00
13569;DHT22;6856;51.460;7.158;2023-07-31T16:18:40;22.00;68.80
13569;DHT22;6856;51.460;7.158;2023-07-31T16:21:14;22.10;68.80
13569;DHT22;6856;51.460;7.158;2023-07-31T16:23:48;22.00;68.70
13569;DHT22;6856;51.460;7.158;2023-07-31T16:26:23;22.00;68.70
13569;DHT22;6856;51.460;7.158;2023-07-31T16:28:57;22.00;68.80
13569;DHT22;6856;51.460;7.158;2023-07-31T16:31:31;22.00;69.00
13569;DHT22;6856;51.460;7.158;2023-07-31T16:34:22;22.00;68.90
13569;DHT22;6856;51.460;7.158;2023-07-31T16:36:58;22.00;69.00
13569;DHT22;6856;51.460;7.158;2023-07-31T16:39:33;21.90;69.00